Time;durP1;ratioP1;P1;durP2;ratioP2;P2;SDS_P1;SDS_P2;PMS_P1;PMS_P2;Temp;Humidity;BMP_temperature;BMP_pressure;BME280_temperature;BME280_humidity;BME280_pressure;Samples;Min_cycle;Max_cycle;Signal;HPM_P1;HPM_P2
2021/11/26 00:01:09;;;;;;;3.13;2.47;;;7.70;99.90;;;;;;5036633;28;20033;-74
2021/11/26 00:03:35;;;;;;;3.05;2.50;;;7.70;99.90;;;;;;5036135;28;20041;-74
2021/11/26 00:06:01;;;;;;;2.60;2.13;;;7.80;99.90;;;;;;5036603;28;20046;-73
2021/11/26 00:08:27;;;;;;;4.20;2.35;;;7.70;99.90;;;;;;5036891;28;20052;-74
2021/11/26 00:10:53;;;;;;;3.67;2.47;;;7.70;99.90;;;;;;5037011;28;20059;-73
2021/11/26 00:13:19;;;;;;;2.78;1.83;;;7.70;99.90;;;;;;5036413;28;20396;-74
2021/11/26 00:15:46;;;;;;;1.75;1.40;;;7.70;99.90;;;;;;5035985;28;20508;-74
2021/11/26 00:18:20;;;;;;;1.77;1.38;;;7.80;99.90;;;;;;5035992;28;20396;-74
2021/11/26 00:20:47;;;;;;;3.38;1.58;;;7.80;99.90;;;;;;5036061;28;20038;-74
2021/11/26 00:23:14;;;;;;;2.03;1.67;;;7.80;99.90;;;;;;5036445;28;20052;-73
2021/11/26 00:25:41;;;;;;;1.27;1.17;;;7.80;99.90;;;;;;5036132;28;20041;-74
2021/11/26 00:28:07;;;;;;;1.17;1.08;;;7.80;99.90;;;;;;5036862;28;20045;-73
2021/11/26 00:30:32;;;;;;;1.55;1.10;;;7.80;99.90;;;;;;5036346;28;20125;-74
2021/11/26 00:32:58;;;;;;;1.13;1.02;;;7.80;99.90;;;;;;5036127;28;20041;-74
2021/11/26 00:35:24;;;;;;;2.17;0.90;;;7.80;99.90;;;;;;5036801;28;20095;-74
2021/11/26 00:37:50;;;;;;;0.82;0.70;;;7.70;99.90;;;;;;5036695;28;20049;-74
2021/11/26 00:40:16;;;;;;;0.82;0.80;;;7.80;99.90;;;;;;5036230;28;20103;-74
2021/11/26 00:42:42;;;;;;;0.63;0.40;;;7.80;99.90;;;;;;5036306;28;20545;-73
2021/11/26 00:45:10;;;;;;;1.08;0.98;;;7.80;99.90;;;;;;5036182;28;20116;-74
2021/11/26 00:47:37;;;;;;;1.40;0.70;;;7.80;99.90;;;;;;5035480;28;20064;-74
2021/11/26 00:50:04;;;;;;;0.63;0.60;;;7.90;99.90;;;;;;5036011;28;20041;-73
2021/11/26 00:52:29;;;;;;;0.50;0.50;;;7.90;99.90;;;;;;5035903;28;20045;-74
2021/11/26 00:54:55;;;;;;;0.68;0.47;;;7.90;99.90;;;;;;5035883;28;20037;-74
2021/11/26 00:57:21;;;;;;;1.23;0.55;;;7.90;99.90;;;;;;5035842;28;20392;-74
2021/11/26 00:59:47;;;;;;;1.60;0.70;;;7.90;99.90;;;;;;5035886;28;20069;-74
2021/11/26 01:02:14;;;;;;;0.47;0.47;;;7.90;99.90;;;;;;5035275;28;20045;-73
2021/11/26 01:04:41;;;;;;;0.40;0.40;;;7.90;99.90;;;;;;5035687;28;20508;-73
2021/11/26 01:07:07;;;;;;;0.80;0.40;;;7.90;99.90;;;;;;5035842;28;20045;-74
2021/11/26 01:09:33;;;;;;;0.45;0.45;;;7.80;99.90;;;;;;5035474;28;20040;-74
2021/11/26 01:11:59;;;;;;;1.58;0.43;;;7.80;99.90;;;;;;5035580;28;20073;-74
2021/11/26 01:14:25;;;;;;;1.25;0.60;;;7.80;99.90;;;;;;5035510;28;20041;-74
2021/11/26 01:16:53;;;;;;;0.70;0.70;;;7.90;99.90;;;;;;5035428;28;20082;-74
2021/11/26 01:19:19;;;;;;;1.05;0.85;;;7.80;99.90;;;;;;5035601;28;20033;-73
2021/11/26 01:21:45;;;;;;;0.77;0.57;;;7.80;99.90;;;;;;5035100;28;20120;-74
2021/11/26 01:24:11;;;;;;;1.35;0.77;;;7.80;99.90;;;;;;5035645;28;20088;-73
2021/11/26 01:26:37;;;;;;;0.70;0.70;;;7.80;99.90;;;;;;5034969;28;20052;-74
2021/11/26 01:29:03;;;;;;;1.42;0.90;;;7.90;99.90;;;;;;5035324;28;20045;-74
2021/11/26 01:31:29;;;;;;;2.03;0.70;;;7.80;99.90;;;;;;5035534;28;20116;-74
2021/11/26 01:33:55;;;;;;;1.38;0.90;;;7.80;99.90;;;;;;5035106;28;20072;-74
2021/11/26 01:36:22;;;;;;;0.65;0.65;;;7.70;99.90;;;;;;5034878;28;20052;-74
2021/11/26 01:38:47;;;;;;;0.80;0.80;;;7.80;99.90;;;;;;5034652;28;20361;-74
2021/11/26 01:41:14;;;;;;;3.13;1.00;;;7.70;99.90;;;;;;5034867;28;20044;-74
2021/11/26 01:43:40;;;;;;;1.23;1.13;;;7.70;99.90;;;;;;5034752;28;20041;-74
2021/11/26 01:46:08;;;;;;;1.48;1.00;;;7.70;99.90;;;;;;5035817;28;20456;-74
2021/11/26 01:48:40;;;;;;;1.42;1.10;;;7.70;99.90;;;;;;5034910;28;20084;-74
2021/11/26 01:51:07;;;;;;;1.27;1.17;;;7.70;99.90;;;;;;5035574;28;20076;-74
2021/11/26 01:53:34;;;;;;;1.83;1.30;;;7.60;99.90;;;;;;5035260;28;20052;-74
2021/11/26 01:56:00;;;;;;;2.15;1.50;;;7.60;99.90;;;;;;5034744;28;20527;-74
2021/11/26 01:58:26;;;;;;;2.40;1.50;;;7.60;99.90;;;;;;5035149;28;20045;-74
2021/11/26 02:00:54;;;;;;;2.63;1.88;;;7.60;99.90;;;;;;5034865;28;20044;-74
2021/11/26 02:03:20;;;;;;;2.80;1.58;;;7.60;99.90;;;;;;5034382;28;20108;-74
2021/11/26 02:05:46;;;;;;;1.90;1.38;;;7.60;99.90;;;;;;5034719;28;20036;-74
2021/11/26 02:08:12;;;;;;;2.58;1.67;;;7.50;99.90;;;;;;5035236;28;20029;-74
2021/11/26 02:10:39;;;;;;;2.05;1.40;;;7.50;91.20;;;;;;5034736;28;20076;-74
2021/11/26 02:13:05;;;;;;;1.50;1.20;;;7.60;38.90;;;;;;5034680;28;20033;-74
2021/11/26 02:15:31;;;;;;;1.33;1.23;;;7.60;76.60;;;;;;5034419;28;20041;-74
2021/11/26 02:17:59;;;;;;;1.48;1.13;;;7.60;99.90;;;;;;5034674;28;20059;-74
2021/11/26 02:20:28;;;;;;;1.00;0.90;;;7.50;99.90;;;;;;5034821;28;20045;-74
2021/11/26 02:22:56;;;;;;;3.80;0.90;;;7.50;99.90;;;;;;5037155;28;20053;-74
2021/11/26 02:25:23;;;;;;;0.75;0.75;;;7.50;99.90;;;;;;5039275;28;20068;-74
2021/11/26 02:27:51;;;;;;;1.98;1.10;;;7.50;99.90;;;;;;5038543;28;20084;-74
2021/11/26 02:30:19;;;;;;;1.05;0.70;;;7.50;99.90;;;;;;5038610;28;20124;-74
2021/11/26 02:33:15;;;;;;;0.60;0.50;;;7.50;99.90;;;;;;5038024;28;20038;-74
2021/11/26 02:35:45;;;;;;;0.52;0.52;;;7.50;99.90;;;;;;5038698;28;20033;-74
2021/11/26 02:38:12;;;;;;;0.60;0.60;;;7.40;99.30;;;;;;5038891;28;20037;-74
2021/11/26 02:40:40;;;;;;;0.60;0.60;;;7.40;99.50;;;;;;5038411;28;20037;-74
2021/11/26 02:43:07;;;;;;;0.82;0.50;;;7.50;99.90;;;;;;5038365;28;20052;-74
2021/11/26 02:45:33;;;;;;;0.82;0.60;;;7.50;99.90;;;;;;5038341;28;20033;-73
2021/11/26 02:47:59;;;;;;;0.55;0.55;;;7.40;83.50;;;;;;5037761;28;20143;-74
2021/11/26 02:50:26;;;;;;;0.30;0.30;;;7.40;99.90;;;;;;5038525;28;20548;-73
2021/11/26 02:52:54;;;;;;;0.65;0.60;;;7.40;99.90;;;;;;5038176;28;20034;-74
2021/11/26 02:55:23;;;;;;;0.75;0.75;;;7.40;74.90;;;;;;5037876;28;20040;-73
2021/11/26 02:57:49;;;;;;;1.52;1.27;;;7.40;95.50;;;;;;5037823;28;20048;-74
2021/11/26 03:00:18;;;;;;;4.72;2.20;;;7.40;93.30;;;;;;5038306;28;20033;-74
2021/11/26 03:02:45;;;;;;;4.30;3.10;;;7.40;82.90;;;;;;5037820;28;20045;-74
2021/11/26 03:05:12;;;;;;;3.80;3.03;;;7.40;98.20;;;;;;5038020;28;20134;-74
2021/11/26 03:07:38;;;;;;;4.43;3.60;;;7.40;81.50;;;;;;5037826;28;20092;-74
2021/11/26 03:10:06;;;;;;;4.65;3.60;;;7.40;96.30;;;;;;5037558;28;20060;-74
2021/11/26 03:12:32;;;;;;;4.90;3.88;;;7.40;83.90;;;;;;5037790;28;20046;-74
2021/11/26 03:14:58;;;;;;;4.40;3.38;;;7.40;69.00;;;;;;5037770;28;20026;-74
2021/11/26 03:17:24;;;;;;;3.55;3.17;;;7.40;78.00;;;;;;5037857;28;20060;-74
2021/11/26 03:19:51;;;;;;;3.70;2.83;;;7.40;80.60;;;;;;5037097;28;20061;-74
2021/11/26 03:22:16;;;;;;;2.50;2.30;;;7.40;72.00;;;;;;5037040;28;20072;-74
2021/11/26 03:24:42;;;;;;;2.97;2.55;;;7.30;95.70;;;;;;5037106;28;20044;-74
2021/11/26 03:27:08;;;;;;;2.85;2.45;;;7.30;94.30;;;;;;5037200;28;20213;-74
2021/11/26 03:29:34;;;;;;;2.83;1.95;;;7.30;99.90;;;;;;5037119;28;20522;-74
2021/11/26 03:32:00;;;;;;;1.85;1.65;;;7.30;67.10;;;;;;5037092;28;20063;-74
2021/11/26 03:34:26;;;;;;;4.32;1.52;;;7.30;79.50;;;;;;5036800;28;20044;-73
2021/11/26 03:36:52;;;;;;;2.00;1.40;;;7.40;71.90;;;;;;5037135;28;20493;-73
2021/11/26 03:39:17;;;;;;;1.65;1.55;;;7.30;74.10;;;;;;5037321;28;20040;-73
2021/11/26 03:41:43;;;;;;;1.63;1.10;;;7.30;94.60;;;;;;5037326;28;20545;-74
2021/11/26 03:44:09;;;;;;;1.35;1.00;;;7.30;87.60;;;;;;5036738;28;20041;-74
2021/11/26 03:46:35;;;;;;;1.48;0.70;;;7.30;54.80;;;;;;5036334;28;20056;-74
2021/11/26 03:49:01;;;;;;;0.90;0.73;;;7.20;70.20;;;;;;5036446;28;20041;-74
2021/11/26 03:51:28;;;;;;;1.60;1.00;;;7.20;67.50;;;;;;5036793;28;20048;-74
2021/11/26 03:53:54;;;;;;;0.80;0.80;;;7.20;76.10;;;;;;5036927;28;20097;-74
2021/11/26 03:56:20;;;;;;;1.20;0.90;;;7.10;74.40;;;;;;5036997;28;20045;-74
2021/11/26 03:58:46;;;;;;;0.93;0.70;;;7.10;78.40;;;;;;5036621;28;20095;-73
2021/11/26 04:01:12;;;;;;;0.82;0.70;;;7.10;99.90;;;;;;5036384;28;20488;-74
2021/11/26 04:03:38;;;;;;;0.60;0.60;;;7.00;99.90;;;;;;5036426;28;20072;-74
2021/11/26 04:06:04;;;;;;;1.52;0.90;;;6.90;98.50;;;;;;5036230;28;20053;-74
2021/11/26 04:08:30;;;;;;;1.38;0.80;;;6.90;99.90;;;;;;5036892;28;20041;-74
2021/11/26 04:10:56;;;;;;;0.95;0.85;;;6.80;99.90;;;;;;5036472;28;20048;-74
2021/11/26 04:13:21;;;;;;;0.70;0.70;;;6.80;99.90;;;;;;5036069;28;20116;-74
2021/11/26 04:15:47;;;;;;;2.90;1.30;;;6.80;99.90;;;;;;5036936;28;20037;-74
2021/11/26 04:18:13;;;;;;;0.77;0.70;;;6.80;99.90;;;;;;5036279;28;20412;-74
2021/11/26 04:20:42;;;;;;;1.10;1.00;;;6.80;99.90;;;;;;5036829;28;20041;-74
2021/11/26 04:23:09;;;;;;;1.20;0.98;;;6.70;99.90;;;;;;5036216;28;20076;-74
2021/11/26 04:25:35;;;;;;;6.15;1.77;;;6.70;99.90;;;;;;5036400;28;20044;-74
2021/11/26 04:28:01;;;;;;;1.70;1.48;;;6.60;99.90;;;;;;5036071;28;20073;-74
2021/11/26 04:30:29;;;;;;;2.80;1.92;;;6.60;99.90;;;;;;5036675;28;20126;-74
2021/11/26 04:32:55;;;;;;;2.33;1.92;;;6.60;99.90;;;;;;5036176;28;20131;-73
2021/11/26 04:35:21;;;;;;;1.60;1.33;;;6.60;99.90;;;;;;5036295;28;20041;-74
2021/11/26 04:37:48;;;;;;;2.88;1.60;;;6.70;99.90;;;;;;5036130;28;20510;-74
2021/11/26 04:40:15;;;;;;;1.55;1.35;;;6.70;99.90;;;;;;5036285;28;20052;-74
2021/11/26 04:42:42;;;;;;;2.78;1.50;;;6.60;99.90;;;;;;5036399;28;20087;-74
2021/11/26 04:45:10;;;;;;;1.40;1.30;;;6.70;99.90;;;;;;5035212;28;20087;-74
2021/11/26 04:47:37;;;;;;;1.77;1.50;;;6.70;99.90;;;;;;5035516;28;20063;-74
2021/11/26 04:50:05;;;;;;;1.83;1.27;;;6.70;99.90;;;;;;5036031;28;20045;-74
2021/11/26 04:52:31;;;;;;;1.67;1.25;;;6.60;99.90;;;;;;5035819;28;20060;-74
2021/11/26 04:54:57;;;;;;;1.58;1.27;;;6.60;99.90;;;;;;5035843;28;20041;-74
2021/11/26 04:57:23;;;;;;;1.63;1.30;;;6.60;99.90;;;;;;5035548;28;20044;-74
2021/11/26 04:59:48;;;;;;;1.98;1.35;;;6.60;99.90;;;;;;5035918;28;20045;-74
2021/11/26 05:02:14;;;;;;;1.20;1.10;;;6.60;99.90;;;;;;5034859;28;20038;-74
2021/11/26 05:04:40;;;;;;;1.48;1.20;;;6.60;99.90;;;;;;5035263;28;20152;-74
2021/11/26 05:07:06;;;;;;;1.27;0.90;;;6.60;99.90;;;;;;5035052;28;20495;-74
2021/11/26 05:09:32;;;;;;;0.80;0.80;;;6.60;99.90;;;;;;5032449;28;20069;-74
2021/11/26 05:11:58;;;;;;;1.58;1.20;;;6.60;99.90;;;;;;5025869;28;20378;-74
2021/11/26 05:14:25;;;;;;;2.17;1.20;;;6.60;99.90;;;;;;5015424;28;20034;-73
2021/11/26 05:16:52;;;;;;;1.70;1.48;;;6.60;99.90;;;;;;5018394;28;20038;-74
2021/11/26 05:19:18;;;;;;;1.33;1.08;;;6.60;99.90;;;;;;5027327;28;20069;-74
2021/11/26 05:21:44;;;;;;;1.85;1.50;;;6.50;99.90;;;;;;5035331;28;20088;-73
2021/11/26 05:24:12;;;;;;;1.40;1.30;;;6.60;99.90;;;;;;5035383;28;20049;-74
2021/11/26 05:26:39;;;;;;;1.50;1.40;;;6.60;99.90;;;;;;5035220;28;20048;-74
2021/11/26 05:29:04;;;;;;;1.98;1.55;;;6.60;99.90;;;;;;5035491;28;20072;-74
2021/11/26 05:31:35;;;;;;;2.47;1.42;;;6.60;99.90;;;;;;5035322;28;20060;-74
2021/11/26 05:34:02;;;;;;;;;;;6.60;99.90;;;;;;5035107;28;20548;-70
2021/11/26 05:36:28;;;;;;;1.25;1.13;;;6.60;99.90;;;;;;5034528;28;19916;-73
2021/11/26 05:38:54;;;;;;;4.88;1.10;;;6.50;99.90;;;;;;5034350;28;20049;-77
2021/11/26 05:41:19;;;;;;;1.50;1.20;;;6.50;99.90;;;;;;5049810;28;20029;-77
2021/11/26 05:43:45;;;;;;;3.63;1.45;;;6.50;99.90;;;;;;5035051;28;20068;-76
2021/11/26 05:46:11;;;;;;;2.25;1.50;;;6.40;99.90;;;;;;5035006;28;20107;-76
2021/11/26 05:48:37;;;;;;;2.40;1.80;;;6.40;99.90;;;;;;5035028;28;20045;-77
2021/11/26 05:51:03;;;;;;;2.97;2.00;;;6.40;99.90;;;;;;5034993;28;20099;-77
2021/11/26 05:53:28;;;;;;;1.92;1.60;;;6.30;99.90;;;;;;5034219;28;20052;-77
2021/11/26 05:55:59;;;;;;;2.00;1.70;;;6.30;99.90;;;;;;5034498;28;20048;-77
2021/11/26 05:58:25;;;;;;;1.50;1.35;;;6.30;99.90;;;;;;5034606;28;20068;-77
2021/11/26 06:00:51;;;;;;;2.05;1.85;;;6.20;99.90;;;;;;5034894;28;20034;-77
2021/11/26 06:03:16;;;;;;;2.70;1.98;;;6.20;99.90;;;;;;5034616;28;20488;-77
2021/11/26 06:05:42;;;;;;;1.75;1.60;;;6.10;99.90;;;;;;5034452;28;20029;-77
2021/11/26 06:08:08;;;;;;;2.15;1.95;;;6.20;99.90;;;;;;5034347;28;20049;-77
2021/11/26 06:10:34;;;;;;;3.65;2.42;;;6.10;99.90;;;;;;5034695;28;20151;-77
2021/11/26 06:13:00;;;;;;;2.70;2.17;;;6.10;99.90;;;;;;5034381;28;20124;-77
2021/11/26 06:15:26;;;;;;;1.85;1.67;;;6.10;99.90;;;;;;5034687;28;20175;-77
2021/11/26 06:17:52;;;;;;;2.53;2.05;;;6.10;99.90;;;;;;5034286;28;20042;-77
2021/11/26 06:20:19;;;;;;;2.72;1.90;;;6.10;99.90;;;;;;5035218;28;20055;-77
2021/11/26 06:22:45;;;;;;;1.70;1.60;;;6.10;99.90;;;;;;5034302;28;20049;-77
2021/11/26 06:25:14;;;;;;;1.65;1.40;;;6.10;99.90;;;;;;5034085;28;20484;-77
2021/11/26 06:27:41;;;;;;;1.42;1.33;;;6.00;99.90;;;;;;5034509;28;20050;-77
2021/11/26 06:30:11;;;;;;;1.40;1.30;;;6.10;99.90;;;;;;5034616;28;20045;-77
2021/11/26 06:32:37;;;;;;;1.30;1.20;;;6.10;99.90;;;;;;5033986;28;20411;-77
2021/11/26 06:35:03;;;;;;;1.30;1.17;;;6.00;99.90;;;;;;5034078;28;20404;-77
2021/11/26 06:37:29;;;;;;;1.15;1.05;;;6.00;99.90;;;;;;5034507;28;20045;-76
2021/11/26 06:39:55;;;;;;;0.75;0.70;;;6.00;99.90;;;;;;5034144;28;20544;-77
2021/11/26 06:42:21;;;;;;;1.80;1.05;;;5.90;99.90;;;;;;5034652;28;20030;-73
2021/11/26 06:44:46;;;;;;;2.17;1.02;;;5.90;99.90;;;;;;5034337;28;20037;-73
2021/11/26 06:47:12;;;;;;;1.30;1.20;;;5.80;99.90;;;;;;5034174;28;20046;-73
2021/11/26 06:49:38;;;;;;;4.05;1.38;;;5.80;99.90;;;;;;5034339;28;20041;-74
2021/11/26 06:52:04;;;;;;;2.45;1.80;;;5.70;99.90;;;;;;5034571;28;20376;-74
2021/11/26 06:54:31;;;;;;;1.92;1.63;;;5.70;99.90;;;;;;5034398;28;20046;-73
2021/11/26 06:56:56;;;;;;;4.32;1.95;;;5.70;99.90;;;;;;5033938;28;20564;-74
2021/11/26 06:59:22;;;;;;;2.75;2.10;;;5.70;99.90;;;;;;5034476;28;20121;-74
2021/11/26 07:01:48;;;;;;;3.00;2.17;;;5.60;99.90;;;;;;5034377;28;20132;-73
2021/11/26 07:04:14;;;;;;;3.03;2.35;;;5.60;99.90;;;;;;5033933;28;20092;-74
2021/11/26 07:06:40;;;;;;;3.58;2.47;;;5.60;99.90;;;;;;5034043;28;20072;-73
2021/11/26 07:09:06;;;;;;;4.30;2.70;;;5.70;99.90;;;;;;5036864;28;20048;-74
2021/11/26 07:11:32;;;;;;;3.67;3.15;;;5.60;99.90;;;;;;5037576;28;20084;-74
2021/11/26 07:13:58;;;;;;;5.43;2.78;;;5.70;99.90;;;;;;5037818;28;20041;-73
2021/11/26 07:16:24;;;;;;;4.72;3.08;;;5.60;99.90;;;;;;5037802;28;20064;-74
2021/11/26 07:18:50;;;;;;;4.43;2.90;;;5.60;99.90;;;;;;5037524;28;20064;-73
2021/11/26 07:21:16;;;;;;;4.10;3.45;;;5.60;99.90;;;;;;5037710;28;20088;-74
2021/11/26 07:23:42;;;;;;;4.22;3.55;;;5.50;99.90;;;;;;5035564;28;20057;-74
2021/11/26 07:26:08;;;;;;;4.50;3.65;;;5.50;99.90;;;;;;5037211;28;20026;-74
2021/11/26 07:28:34;;;;;;;4.50;3.95;;;5.60;99.90;;;;;;5037688;28;20037;-74
2021/11/26 07:30:59;;;;;;;6.30;4.40;;;5.60;99.90;;;;;;5037437;28;20373;-74
2021/11/26 07:33:25;;;;;;;6.63;5.07;;;5.60;99.90;;;;;;5036967;28;20045;-74
2021/11/26 07:35:51;;;;;;;8.80;6.03;;;5.60;99.90;;;;;;5037106;28;20146;-74
2021/11/26 07:38:17;;;;;;;8.98;6.50;;;5.50;99.90;;;;;;5037082;28;20055;-74
2021/11/26 07:40:43;;;;;;;11.45;6.60;;;5.50;99.90;;;;;;5036170;28;20037;-74
2021/11/26 07:43:09;;;;;;;9.95;6.63;;;5.50;99.90;;;;;;5036025;28;20377;-73
2021/11/26 07:45:34;;;;;;;12.23;8.02;;;5.50;99.90;;;;;;5034013;28;20091;-74
2021/11/26 07:48:00;;;;;;;16.02;9.40;;;5.60;99.90;;;;;;5035288;28;20053;-73
2021/11/26 07:50:27;;;;;;;16.67;9.77;;;5.40;99.90;;;;;;5035919;28;20034;-74
2021/11/26 07:52:52;;;;;;;17.67;11.55;;;5.50;99.90;;;;;;5036500;28;20045;-74
2021/11/26 07:55:18;;;;;;;18.42;11.15;;;5.40;99.90;;;;;;5036001;28;20034;-74
2021/11/26 07:57:45;;;;;;;22.75;13.05;;;5.40;99.90;;;;;;5034783;28;20041;-73
2021/11/26 08:00:13;;;;;;;22.02;12.95;;;5.20;99.90;;;;;;5035124;28;20034;-74
2021/11/26 08:02:39;;;;;;;23.88;14.02;;;5.10;99.90;;;;;;5035452;28;20568;-74
2021/11/26 08:05:06;;;;;;;22.85;13.52;;;5.20;99.90;;;;;;5035671;28;20120;-74
2021/11/26 08:07:32;;;;;;;26.05;14.25;;;5.20;99.90;;;;;;5035347;28;20076;-74
2021/11/26 08:09:58;;;;;;;26.20;15.05;;;5.20;99.90;;;;;;5033982;28;20034;-74
2021/11/26 08:12:23;;;;;;;27.75;15.55;;;5.20;99.90;;;;;;5033115;28;20436;-73
2021/11/26 08:14:51;;;;;;;25.23;14.02;;;5.30;99.90;;;;;;5027718;28;20045;-75
2021/11/26 08:17:18;;;;;;;26.55;16.10;;;5.20;99.90;;;;;;5033144;28;20049;-74
2021/11/26 08:19:44;;;;;;;25.88;15.55;;;5.20;99.90;;;;;;5033108;28;20033;-75
2021/11/26 08:22:12;;;;;;;24.52;16.23;;;5.20;99.90;;;;;;5035757;28;20041;-75
2021/11/26 08:24:38;;;;;;;26.00;16.83;;;5.10;99.90;;;;;;5035571;28;20037;-74
2021/11/26 08:27:04;;;;;;;27.75;17.02;;;5.10;99.90;;;;;;5036050;28;20037;-74
2021/11/26 08:29:31;;;;;;;28.00;16.63;;;5.10;99.90;;;;;;5036179;28;20091;-75
2021/11/26 08:31:57;;;;;;;26.77;16.95;;;5.00;99.90;;;;;;5035587;28;20100;-76
2021/11/26 08:34:23;;;;;;;25.58;17.00;;;5.00;99.90;;;;;;5035241;28;20045;-76
2021/11/26 08:36:49;;;;;;;25.17;15.95;;;5.00;99.90;;;;;;5035671;28;20431;-76
2021/11/26 08:39:15;;;;;;;25.60;15.98;;;4.90;99.90;;;;;;5036191;28;20087;-73
2021/11/26 08:41:41;;;;;;;24.10;15.57;;;5.00;99.90;;;;;;5035418;28;20041;-75
2021/11/26 08:44:07;;;;;;;24.63;16.45;;;5.00;99.90;;;;;;5035645;28;20076;-75
2021/11/26 08:46:33;;;;;;;31.48;19.40;;;5.00;99.90;;;;;;5035673;28;20124;-75
2021/11/26 08:49:00;;;;;;;28.50;18.80;;;5.00;99.90;;;;;;5034461;28;20159;-75
2021/11/26 08:51:29;;;;;;;32.47;19.48;;;5.00;99.90;;;;;;5035551;28;20041;-75
2021/11/26 08:53:56;;;;;;;31.20;19.33;;;5.00;99.90;;;;;;5034473;28;20037;-75
2021/11/26 08:56:24;;;;;;;33.97;21.08;;;4.90;99.90;;;;;;5034567;28;20075;-76
2021/11/26 08:58:50;;;;;;;33.28;19.20;;;4.90;99.90;;;;;;5034780;28;20481;-76
2021/11/26 09:01:16;;;;;;;32.47;20.00;;;4.90;99.90;;;;;;5035722;28;20060;-75
2021/11/26 09:03:44;;;;;;;31.48;20.08;;;4.80;99.90;;;;;;5034177;28;20584;-76
2021/11/26 09:06:13;;;;;;;34.53;20.60;;;4.90;99.90;;;;;;5034157;28;20038;-75
2021/11/26 09:08:39;;;;;;;31.75;19.80;;;4.80;99.90;;;;;;5033618;28;20049;-75
2021/11/26 09:11:05;;;;;;;31.20;18.80;;;4.80;99.90;;;;;;5034472;28;20091;-75
2021/11/26 09:13:31;;;;;;;33.03;19.27;;;4.80;99.90;;;;;;5034788;28;20041;-75
2021/11/26 09:15:57;;;;;;;31.02;19.60;;;4.90;99.90;;;;;;5035331;28;20037;-75
2021/11/26 09:18:22;;;;;;;31.75;20.80;;;4.80;99.90;;;;;;5034785;28;20033;-75
2021/11/26 09:20:53;;;;;;;31.75;20.05;;;4.80;99.90;;;;;;5033679;28;20042;-75
2021/11/26 09:23:21;;;;;;;31.05;20.70;;;4.90;99.90;;;;;;5033240;28;20500;-73
2021/11/26 09:25:47;;;;;;;30.80;19.45;;;4.90;99.90;;;;;;5034521;28;20048;-74
2021/11/26 09:28:13;;;;;;;35.13;21.30;;;4.80;99.90;;;;;;5034547;28;20497;-73
2021/11/26 09:30:40;;;;;;;34.40;21.95;;;4.90;99.90;;;;;;5034728;28;20048;-74
2021/11/26 09:33:06;;;;;;;32.40;19.60;;;4.80;99.90;;;;;;5034687;28;20465;-74
2021/11/26 09:35:33;;;;;;;29.48;19.05;;;4.80;99.90;;;;;;5035108;28;20116;-74
2021/11/26 09:37:59;;;;;;;28.27;19.30;;;4.80;99.90;;;;;;5034587;28;20128;-75
2021/11/26 09:40:26;;;;;;;27.02;16.98;;;4.80;99.90;;;;;;5034768;28;20064;-75
2021/11/26 09:42:52;;;;;;;29.05;18.95;;;4.80;99.90;;;;;;5035229;28;20163;-75
2021/11/26 09:45:24;;;;;;;27.63;18.85;;;4.90;99.90;;;;;;5034782;28;20079;-74
2021/11/26 09:47:51;;;;;;;27.48;17.75;;;4.90;99.90;;;;;;5034517;28;20072;-74
2021/11/26 09:50:19;;;;;;;30.83;19.20;;;4.60;99.90;;;;;;5033992;28;20511;-72
2021/11/26 09:52:46;;;;;;;28.65;19.10;;;4.70;99.90;;;;;;5033315;28;20068;-71
2021/11/26 09:55:14;;;;;;;31.83;19.83;;;4.70;99.90;;;;;;5032592;28;20040;-72
2021/11/26 09:57:41;;;;;;;31.95;19.42;;;4.70;99.90;;;;;;5034086;28;20049;-72
2021/11/26 10:00:12;;;;;;;30.08;20.42;;;4.60;99.90;;;;;;5033964;28;20034;-72
2021/11/26 10:02:38;;;;;;;27.08;18.13;;;4.70;99.90;;;;;;5035006;28;20037;-72
2021/11/26 10:05:08;;;;;;;25.75;17.00;;;4.80;99.90;;;;;;5034843;28;20485;-72
2021/11/26 10:07:48;;;;;;;29.08;17.40;;;4.60;99.90;;;;;;5035283;28;20049;-72
2021/11/26 10:10:23;;;;;;;28.80;18.30;;;4.60;99.90;;;;;;5035132;28;20394;-72
2021/11/26 10:13:11;;;;;;;26.67;17.35;;;4.60;99.90;;;;;;5034675;28;20133;-72
2021/11/26 10:15:41;;;;;;;28.95;18.23;;;4.60;99.90;;;;;;5034494;28;20052;-72
2021/11/26 10:18:12;;;;;;;30.27;17.70;;;4.60;99.90;;;;;;5034501;28;20488;-72
2021/11/26 10:20:56;;;;;;;24.90;17.80;;;4.60;99.90;;;;;;5034408;28;20095;-72
2021/11/26 10:23:24;;;;;;;26.20;17.05;;;4.60;99.90;;;;;;5034905;28;20489;-72
2021/11/26 10:25:50;;;;;;;23.52;16.48;;;4.60;99.90;;;;;;5034624;28;20033;-72
2021/11/26 10:28:17;;;;;;;25.50;17.95;;;4.60;99.90;;;;;;5034240;28;20053;-71
2021/11/26 10:30:45;;;;;;;38.58;23.73;;;4.60;99.90;;;;;;5034568;28;20044;-71
2021/11/26 10:33:18;;;;;;;36.83;28.23;;;4.70;99.90;;;;;;5034827;28;20041;-72
2021/11/26 10:35:48;;;;;;;130.85;69.85;;;4.70;99.90;;;;;;5029621;28;20087;-73
2021/11/26 10:38:16;;;;;;;47.20;28.00;;;4.80;99.90;;;;;;5034944;28;20045;-73
2021/11/26 10:40:46;;;;;;;25.48;17.35;;;4.70;99.90;;;;;;5034416;28;20037;-73
2021/11/26 10:43:18;;;;;;;28.02;17.83;;;4.70;99.90;;;;;;5035844;28;20045;-73
2021/11/26 10:48:47;;;;;;;22.27;16.35;;;4.80;99.90;;;;;;5038034;28;20071;-73
2021/11/26 10:59:40;;;;;;;23.90;16.42;;;4.70;99.90;;;;;;5037631;28;20032;-71
2021/11/26 11:02:07;;;;;;;90.88;49.33;;;4.70;99.90;;;;;;5038169;28;20044;-71
2021/11/26 11:04:37;;;;;;;22.55;16.08;;;4.80;99.90;;;;;;5038204;28;20124;-71
2021/11/26 11:07:09;;;;;;;24.85;17.13;;;4.80;99.90;;;;;;5037932;28;20049;-71
2021/11/26 11:09:46;;;;;;;41.55;24.92;;;4.70;99.90;;;;;;5038041;28;20065;-70
2021/11/26 11:12:13;;;;;;;23.17;14.90;;;4.60;99.90;;;;;;5037390;28;20037;-71
2021/11/26 11:14:41;;;;;;;21.83;15.48;;;4.70;99.90;;;;;;5034804;28;20128;-71
2021/11/26 11:17:07;;;;;;;20.23;14.18;;;4.70;99.90;;;;;;5034914;28;20542;-71
2021/11/26 11:19:33;;;;;;;30.65;18.02;;;4.70;99.90;;;;;;5035832;28;20044;-71
2021/11/26 11:22:00;;;;;;;27.88;21.35;;;4.60;99.90;;;;;;5037278;28;20045;-71
2021/11/26 11:24:28;;;;;;;157.65;81.68;;;4.60;99.90;;;;;;5037113;28;20049;-71
2021/11/26 11:26:55;;;;;;;211.35;115.53;;;4.50;99.90;;;;;;5037077;28;20129;-71
2021/11/26 11:29:26;;;;;;;88.93;48.55;;;4.60;99.90;;;;;;5052613;28;20037;-70
2021/11/26 11:31:54;;;;;;;26.88;18.75;;;4.70;99.90;;;;;;5037066;28;20034;-74
2021/11/26 11:34:24;;;;;;;21.73;14.48;;;4.80;99.90;;;;;;5037156;28;20555;-72
2021/11/26 11:36:54;;;;;;;46.70;28.90;;;4.80;99.90;;;;;;5036697;28;20048;-72
2021/11/26 11:39:19;;;;;;;38.15;24.35;;;4.90;99.90;;;;;;5036925;28;20045;-71
2021/11/26 11:42:05;;;;;;;14.43;11.65;;;5.00;99.90;;;;;;5036733;28;20037;-71
2021/11/26 11:44:34;;;;;;;20.85;15.27;;;5.00;99.90;;;;;;5036726;28;20120;-72
2021/11/26 11:47:20;;;;;;;18.88;14.85;;;5.00;99.90;;;;;;5036693;28;20041;-72
2021/11/26 11:49:46;;;;;;;16.45;13.52;;;5.10;99.90;;;;;;5036909;28;20038;-72
2021/11/26 11:52:14;;;;;;;14.80;10.82;;;5.10;97.60;;;;;;5036633;28;20121;-72
2021/11/26 11:54:41;;;;;;;13.73;9.52;;;5.20;87.80;;;;;;5036829;28;20045;-72
2021/11/26 11:57:19;;;;;;;13.05;10.18;;;5.20;94.70;;;;;;5036729;28;20041;-72
2021/11/26 11:59:45;;;;;;;16.30;11.57;;;5.20;99.90;;;;;;5036315;28;20045;-71
2021/11/26 12:02:27;;;;;;;15.80;11.60;;;5.20;90.70;;;;;;5036729;28;20044;-72
2021/11/26 12:04:54;;;;;;;13.98;10.20;;;5.20;81.50;;;;;;5036475;28;20038;-72
2021/11/26 12:07:26;;;;;;;44.38;29.70;;;5.20;99.90;;;;;;5036424;28;20485;-72
2021/11/26 12:10:13;;;;;;;33.08;21.13;;;5.20;99.50;;;;;;5036103;28;20480;-72
2021/11/26 12:12:56;;;;;;;11.45;8.90;;;5.00;99.90;;;;;;5036374;28;20037;-72
2021/11/26 12:15:31;;;;;;;23.40;15.45;;;5.00;99.90;;;;;;5036683;28;20040;-72
2021/11/26 12:18:06;;;;;;;72.88;39.95;;;5.10;99.90;;;;;;5036217;28;20065;-72
2021/11/26 12:20:33;;;;;;;24.85;16.13;;;5.10;99.90;;;;;;5035197;28;20045;-71
2021/11/26 12:23:24;;;;;;;11.55;8.98;;;5.10;99.90;;;;;;5034176;28;20114;-72
2021/11/26 12:28:49;;;;;;;10.95;8.23;;;5.10;99.90;;;;;;5036416;28;20068;-72
2021/11/26 12:31:19;;;;;;;10.52;7.78;;;5.10;99.90;;;;;;5036131;28;20037;-72
2021/11/26 12:33:55;;;;;;;10.67;8.30;;;5.10;99.90;;;;;;5035653;28;20042;-71
2021/11/26 12:36:21;;;;;;;118.72;65.80;;;5.10;99.90;;;;;;5036054;28;20045;-71
2021/11/26 12:38:50;;;;;;;12.45;9.40;;;5.10;99.90;;;;;;5035888;28;20045;-71
2021/11/26 12:41:38;;;;;;;29.08;21.23;;;5.10;99.90;;;;;;5035913;28;20052;-72
2021/11/26 12:44:05;;;;;;;15.48;11.40;;;5.20;99.90;;;;;;5035808;28;20034;-72
2021/11/26 12:46:36;;;;;;;11.30;9.23;;;5.10;99.90;;;;;;5035661;28;20049;-72
2021/11/26 12:51:35;;;;;;;14.65;10.75;;;5.20;99.90;;;;;;5035709;28;20044;-72
2021/11/26 12:54:04;;;;;;;12.93;9.63;;;5.20;99.90;;;;;;5035581;28;20082;-72
2021/11/26 12:56:31;;;;;;;12.88;9.80;;;5.10;99.90;;;;;;5035490;28;20508;-72
2021/11/26 12:58:57;;;;;;;15.00;10.02;;;5.10;99.90;;;;;;5035796;28;20362;-72
2021/11/26 13:01:22;;;;;;;14.38;11.20;;;5.00;99.90;;;;;;5035589;28;20047;-72
2021/11/26 13:03:49;;;;;;;15.15;10.65;;;5.00;99.90;;;;;;5035578;28;20069;-72
2021/11/26 13:06:23;;;;;;;14.73;10.82;;;5.00;99.90;;;;;;5034837;28;20034;-72
2021/11/26 13:09:00;;;;;;;13.68;9.88;;;5.00;99.90;;;;;;5035467;28;20052;-72